sensor_id;sensor_type;location;lat;lon;timestamp;pressure;altitude;pressure_sealevel;temperature
69552;BMP280;63774;45.292;11.784;2023-08-17T00:00:28;101940.12;;;28.04
69552;BMP280;63774;45.292;11.784;2023-08-17T00:02:53;101941.16;;;28.02
69552;BMP280;63774;45.292;11.784;2023-08-17T00:05:18;101939.31;;;28.02
69552;BMP280;63774;45.292;11.784;2023-08-17T00:07:44;101937.58;;;28.00
69552;BMP280;63774;45.292;11.784;2023-08-17T00:10:09;101937.05;;;27.99
69552;BMP280;63774;45.292;11.784;2023-08-17T00:12:35;101939.69;;;27.98
69552;BMP280;63774;45.292;11.784;2023-08-17T00:15:00;101942.51;;;27.96
69552;BMP280;63774;45.292;11.784;2023-08-17T00:17:25;101948.92;;;27.96
69552;BMP280;63774;45.292;11.784;2023-08-17T00:19:51;101952.95;;;27.94
69552;BMP280;63774;45.292;11.784;2023-08-17T00:22:16;101950.29;;;27.93
69552;BMP280;63774;45.292;11.784;2023-08-17T00:24:42;101946.57;;;27.91
69552;BMP280;63774;45.292;11.784;2023-08-17T00:27:10;101941.31;;;27.90
69552;BMP280;63774;45.292;11.784;2023-08-17T00:29:36;101939.88;;;27.94
69552;BMP280;63774;45.292;11.784;2023-08-17T00:32:02;101934.89;;;27.93
69552;BMP280;63774;45.292;11.784;2023-08-17T00:34:28;101934.11;;;27.93
69552;BMP280;63774;45.292;11.784;2023-08-17T00:36:53;101936.04;;;27.92
69552;BMP280;63774;45.292;11.784;2023-08-17T00:39:19;101933.45;;;27.89
69552;BMP280;63774;45.292;11.784;2023-08-17T00:41:45;101930.70;;;27.91
69552;BMP280;63774;45.292;11.784;2023-08-17T00:44:11;101926.98;;;27.93
69552;BMP280;63774;45.292;11.784;2023-08-17T00:46:37;101923.88;;;27.94
69552;BMP280;63774;45.292;11.784;2023-08-17T00:49:03;101917.05;;;27.91
69552;BMP280;63774;45.292;11.784;2023-08-17T00:51:29;101910.73;;;27.90
69552;BMP280;63774;45.292;11.784;2023-08-17T00:53:57;101911.23;;;27.89
69552;BMP280;63774;45.292;11.784;2023-08-17T00:56:23;101910.83;;;27.90
69552;BMP280;63774;45.292;11.784;2023-08-17T00:58:49;101906.96;;;27.87
69552;BMP280;63774;45.292;11.784;2023-08-17T01:01:16;101905.34;;;27.85
69552;BMP280;63774;45.292;11.784;2023-08-17T01:03:42;101908.99;;;27.88
69552;BMP280;63774;45.292;11.784;2023-08-17T01:06:08;101899.35;;;27.85
69552;BMP280;63774;45.292;11.784;2023-08-17T01:08:35;101901.89;;;27.85
69552;BMP280;63774;45.292;11.784;2023-08-17T01:11:20;101896.45;;;27.85
69552;BMP280;63774;45.292;11.784;2023-08-17T01:16:38;101898.80;;;27.85
69552;BMP280;63774;45.292;11.784;2023-08-17T01:19:08;101896.61;;;27.84
69552;BMP280;63774;45.292;11.784;2023-08-17T01:21:41;101899.58;;;27.82
69552;BMP280;63774;45.292;11.784;2023-08-17T01:24:08;101905.53;;;27.83
69552;BMP280;63774;45.292;11.784;2023-08-17T01:26:33;101904.41;;;27.82
69552;BMP280;63774;45.292;11.784;2023-08-17T01:28:59;101901.67;;;27.81
69552;BMP280;63774;45.292;11.784;2023-08-17T01:31:30;101898.80;;;27.79
69552;BMP280;63774;45.292;11.784;2023-08-17T01:34:05;101892.86;;;27.80
69552;BMP280;63774;45.292;11.784;2023-08-17T01:36:37;101897.80;;;27.79
69552;BMP280;63774;45.292;11.784;2023-08-17T01:39:03;101902.52;;;27.75
69552;BMP280;63774;45.292;11.784;2023-08-17T01:41:30;101903.41;;;27.70
69552;BMP280;63774;45.292;11.784;2023-08-17T01:43:56;101914.10;;;27.65
69552;BMP280;63774;45.292;11.784;2023-08-17T01:46:22;101920.42;;;27.66
69552;BMP280;63774;45.292;11.784;2023-08-17T01:48:48;101929.70;;;27.59
69552;BMP280;63774;45.292;11.784;2023-08-17T01:51:17;101929.13;;;27.55
69552;BMP280;63774;45.292;11.784;2023-08-17T01:53:45;101928.30;;;27.51
69552;BMP280;63774;45.292;11.784;2023-08-17T01:56:10;101924.09;;;27.48
69552;BMP280;63774;45.292;11.784;2023-08-17T01:58:36;101919.73;;;27.49
69552;BMP280;63774;45.292;11.784;2023-08-17T02:01:01;101916.51;;;27.49
69552;BMP280;63774;45.292;11.784;2023-08-17T02:03:27;101917.73;;;27.50
69552;BMP280;63774;45.292;11.784;2023-08-17T02:05:57;101911.55;;;27.52
69552;BMP280;63774;45.292;11.784;2023-08-17T02:08:23;101911.00;;;27.53
69552;BMP280;63774;45.292;11.784;2023-08-17T02:10:48;101913.30;;;27.52
69552;BMP280;63774;45.292;11.784;2023-08-17T02:13:14;101911.70;;;27.52
69552;BMP280;63774;45.292;11.784;2023-08-17T02:15:40;101906.33;;;27.53
69552;BMP280;63774;45.292;11.784;2023-08-17T02:18:05;101907.02;;;27.54
69552;BMP280;63774;45.292;11.784;2023-08-17T02:20:31;101903.86;;;27.55
69552;BMP280;63774;45.292;11.784;2023-08-17T02:22:56;101902.55;;;27.56
69552;BMP280;63774;45.292;11.784;2023-08-17T02:25:22;101903.23;;;27.58
69552;BMP280;63774;45.292;11.784;2023-08-17T02:27:47;101906.55;;;27.58
69552;BMP280;63774;45.292;11.784;2023-08-17T02:30:13;101905.38;;;27.57
69552;BMP280;63774;45.292;11.784;2023-08-17T02:32:38;101904.16;;;27.57
69552;BMP280;63774;45.292;11.784;2023-08-17T02:35:04;101901.93;;;27.55
69552;BMP280;63774;45.292;11.784;2023-08-17T02:37:30;101898.61;;;27.54
69552;BMP280;63774;45.292;11.784;2023-08-17T02:39:57;101898.00;;;27.56
69552;BMP280;63774;45.292;11.784;2023-08-17T02:42:22;101900.34;;;27.56
69552;BMP280;63774;45.292;11.784;2023-08-17T02:44:48;101899.34;;;27.56
69552;BMP280;63774;45.292;11.784;2023-08-17T02:47:13;101895.48;;;27.54
69552;BMP280;63774;45.292;11.784;2023-08-17T02:49:38;101898.24;;;27.57
69552;BMP280;63774;45.292;11.784;2023-08-17T02:52:04;101900.61;;;27.57
69552;BMP280;63774;45.292;11.784;2023-08-17T02:54:29;101897.88;;;27.55
69552;BMP280;63774;45.292;11.784;2023-08-17T02:56:57;101899.67;;;27.55
69552;BMP280;63774;45.292;11.784;2023-08-17T02:59:22;101897.83;;;27.54
69552;BMP280;63774;45.292;11.784;2023-08-17T03:01:48;101896.39;;;27.54
69552;BMP280;63774;45.292;11.784;2023-08-17T03:04:13;101893.91;;;27.53
69552;BMP280;63774;45.292;11.784;2023-08-17T03:06:39;101897.61;;;27.53
69552;BMP280;63774;45.292;11.784;2023-08-17T03:09:04;101900.83;;;27.54
69552;BMP280;63774;45.292;11.784;2023-08-17T03:11:29;101900.47;;;27.53
69552;BMP280;63774;45.292;11.784;2023-08-17T03:13:55;101897.96;;;27.53
69552;BMP280;63774;45.292;11.784;2023-08-17T03:16:26;101900.36;;;27.54
69552;BMP280;63774;45.292;11.784;2023-08-17T03:18:52;101901.12;;;27.53
69552;BMP280;63774;45.292;11.784;2023-08-17T03:21:18;101899.85;;;27.54
69552;BMP280;63774;45.292;11.784;2023-08-17T03:23:44;101895.04;;;27.55
69552;BMP280;63774;45.292;11.784;2023-08-17T03:26:10;101895.19;;;27.54
69552;BMP280;63774;45.292;11.784;2023-08-17T03:28:35;101894.41;;;27.53
69552;BMP280;63774;45.292;11.784;2023-08-17T03:31:02;101890.17;;;27.54
69552;BMP280;63774;45.292;11.784;2023-08-17T03:33:28;101890.46;;;27.54
69552;BMP280;63774;45.292;11.784;2023-08-17T03:35:53;101887.36;;;27.53
69552;BMP280;63774;45.292;11.784;2023-08-17T03:38:19;101885.45;;;27.54
69552;BMP280;63774;45.292;11.784;2023-08-17T03:40:44;101886.99;;;27.53
69552;BMP280;63774;45.292;11.784;2023-08-17T03:43:11;101889.14;;;27.52
69552;BMP280;63774;45.292;11.784;2023-08-17T03:45:36;101894.06;;;27.54
69552;BMP280;63774;45.292;11.784;2023-08-17T03:48:02;101893.13;;;27.53
69552;BMP280;63774;45.292;11.784;2023-08-17T03:50:27;101894.71;;;27.53
69552;BMP280;63774;45.292;11.784;2023-08-17T03:52:53;101897.20;;;27.53
69552;BMP280;63774;45.292;11.784;2023-08-17T03:55:18;101895.58;;;27.51
69552;BMP280;63774;45.292;11.784;2023-08-17T03:57:44;101893.96;;;27.52
69552;BMP280;63774;45.292;11.784;2023-08-17T04:00:10;101895.64;;;27.52
69552;BMP280;63774;45.292;11.784;2023-08-17T04:02:36;101896.70;;;27.53
69552;BMP280;63774;45.292;11.784;2023-08-17T04:05:02;101893.60;;;27.53
69552;BMP280;63774;45.292;11.784;2023-08-17T04:07:28;101895.02;;;27.54
69552;BMP280;63774;45.292;11.784;2023-08-17T04:09:53;101893.95;;;27.51
69552;BMP280;63774;45.292;11.784;2023-08-17T04:12:18;101897.71;;;27.53
69552;BMP280;63774;45.292;11.784;2023-08-17T04:14:44;101901.14;;;27.53
69552;BMP280;63774;45.292;11.784;2023-08-17T04:17:11;101902.69;;;27.53
69552;BMP280;63774;45.292;11.784;2023-08-17T04:19:36;101905.58;;;27.52
69552;BMP280;63774;45.292;11.784;2023-08-17T04:22:02;101909.21;;;27.52
69552;BMP280;63774;45.292;11.784;2023-08-17T04:24:27;101911.66;;;27.50
69552;BMP280;63774;45.292;11.784;2023-08-17T04:26:52;101911.69;;;27.52
69552;BMP280;63774;45.292;11.784;2023-08-17T04:29:18;101913.68;;;27.51
69552;BMP280;63774;45.292;11.784;2023-08-17T04:31:43;101910.80;;;27.51
69552;BMP280;63774;45.292;11.784;2023-08-17T04:34:09;101914.56;;;27.53
69552;BMP280;63774;45.292;11.784;2023-08-17T04:36:34;101912.52;;;27.53
69552;BMP280;63774;45.292;11.784;2023-08-17T04:39:00;101908.45;;;27.52
69552;BMP280;63774;45.292;11.784;2023-08-17T04:41:25;101915.35;;;27.52
69552;BMP280;63774;45.292;11.784;2023-08-17T04:43:50;101914.73;;;27.53
69552;BMP280;63774;45.292;11.784;2023-08-17T04:46:16;101920.48;;;27.52
69552;BMP280;63774;45.292;11.784;2023-08-17T04:48:41;101919.62;;;27.51
69552;BMP280;63774;45.292;11.784;2023-08-17T04:51:07;101919.42;;;27.51
69552;BMP280;63774;45.292;11.784;2023-08-17T04:53:32;101919.02;;;27.49
69552;BMP280;63774;45.292;11.784;2023-08-17T04:56:02;101921.02;;;27.50
69552;BMP280;63774;45.292;11.784;2023-08-17T04:58:27;101921.70;;;27.50
69552;BMP280;63774;45.292;11.784;2023-08-17T05:00:53;101919.27;;;27.48
69552;BMP280;63774;45.292;11.784;2023-08-17T05:03:18;101915.98;;;27.48
69552;BMP280;63774;45.292;11.784;2023-08-17T05:05:43;101913.08;;;27.48
69552;BMP280;63774;45.292;11.784;2023-08-17T05:08:09;101911.30;;;27.50
69552;BMP280;63774;45.292;11.784;2023-08-17T05:10:34;101914.69;;;27.50
69552;BMP280;63774;45.292;11.784;2023-08-17T05:13:00;101917.77;;;27.48
69552;BMP280;63774;45.292;11.784;2023-08-17T05:15:25;101927.23;;;27.49
69552;BMP280;63774;45.292;11.784;2023-08-17T05:17:50;101927.31;;;27.48
69552;BMP280;63774;45.292;11.784;2023-08-17T05:20:16;101926.21;;;27.48
69552;BMP280;63774;45.292;11.784;2023-08-17T05:22:42;101925.38;;;27.48
69552;BMP280;63774;45.292;11.784;2023-08-17T05:25:07;101929.71;;;27.48
69552;BMP280;63774;45.292;11.784;2023-08-17T05:27:33;101927.67;;;27.50
69552;BMP280;63774;45.292;11.784;2023-08-17T05:29:58;101927.33;;;27.49
69552;BMP280;63774;45.292;11.784;2023-08-17T05:32:24;101922.05;;;27.50
69552;BMP280;63774;45.292;11.784;2023-08-17T05:34:49;101919.14;;;27.51
69552;BMP280;63774;45.292;11.784;2023-08-17T05:37:15;101919.47;;;27.53
69552;BMP280;63774;45.292;11.784;2023-08-17T05:39:41;101923.22;;;27.56
69552;BMP280;63774;45.292;11.784;2023-08-17T05:42:07;101920.89;;;27.57
69552;BMP280;63774;45.292;11.784;2023-08-17T05:44:32;101921.33;;;27.57
69552;BMP280;63774;45.292;11.784;2023-08-17T05:46:58;101917.93;;;27.58
69552;BMP280;63774;45.292;11.784;2023-08-17T05:49:23;101920.27;;;27.60
69552;BMP280;63774;45.292;11.784;2023-08-17T05:51:48;101920.13;;;27.60
69552;BMP280;63774;45.292;11.784;2023-08-17T05:54:14;101922.42;;;27.61
69552;BMP280;63774;45.292;11.784;2023-08-17T05:56:39;101917.81;;;27.61
69552;BMP280;63774;45.292;11.784;2023-08-17T05:59:10;101916.80;;;27.61
69552;BMP280;63774;45.292;11.784;2023-08-17T06:01:36;101914.71;;;27.61
69552;BMP280;63774;45.292;11.784;2023-08-17T06:04:01;101915.45;;;27.64
69552;BMP280;63774;45.292;11.784;2023-08-17T06:06:27;101913.46;;;27.63
69552;BMP280;63774;45.292;11.784;2023-08-17T06:08:52;101917.34;;;27.64
69552;BMP280;63774;45.292;11.784;2023-08-17T06:11:18;101915.86;;;27.64
69552;BMP280;63774;45.292;11.784;2023-08-17T06:13:43;101919.09;;;27.66
69552;BMP280;63774;45.292;11.784;2023-08-17T06:16:09;101919.33;;;27.67
69552;BMP280;63774;45.292;11.784;2023-08-17T06:18:36;101920.40;;;27.67
69552;BMP280;63774;45.292;11.784;2023-08-17T06:21:01;101923.11;;;27.69
69552;BMP280;63774;45.292;11.784;2023-08-17T06:23:27;101920.98;;;27.71
69552;BMP280;63774;45.292;11.784;2023-08-17T06:25:56;101921.67;;;27.71
69552;BMP280;63774;45.292;11.784;2023-08-17T06:28:22;101923.54;;;27.71
69552;BMP280;63774;45.292;11.784;2023-08-17T06:30:52;101925.69;;;27.72
69552;BMP280;63774;45.292;11.784;2023-08-17T06:33:18;101927.64;;;27.74
69552;BMP280;63774;45.292;11.784;2023-08-17T06:35:44;101927.11;;;27.76
69552;BMP280;63774;45.292;11.784;2023-08-17T06:38:09;101924.50;;;27.76
69552;BMP280;63774;45.292;11.784;2023-08-17T06:40:34;101925.40;;;27.78
69552;BMP280;63774;45.292;11.784;2023-08-17T06:43:00;101924.77;;;27.77
69552;BMP280;63774;45.292;11.784;2023-08-17T06:45:25;101918.05;;;27.78
69552;BMP280;63774;45.292;11.784;2023-08-17T06:47:51;101915.20;;;27.78
69552;BMP280;63774;45.292;11.784;2023-08-17T06:50:16;101916.16;;;27.80
69552;BMP280;63774;45.292;11.784;2023-08-17T06:52:42;101917.27;;;27.82
69552;BMP280;63774;45.292;11.784;2023-08-17T06:55:08;101916.38;;;27.85
69552;BMP280;63774;45.292;11.784;2023-08-17T06:57:43;101914.52;;;27.85
69552;BMP280;63774;45.292;11.784;2023-08-17T07:00:08;101916.08;;;27.87
69552;BMP280;63774;45.292;11.784;2023-08-17T07:02:36;101917.27;;;27.89
69552;BMP280;63774;45.292;11.784;2023-08-17T07:05:02;101920.02;;;27.89
69552;BMP280;63774;45.292;11.784;2023-08-17T07:07:29;101926.94;;;27.90
69552;BMP280;63774;45.292;11.784;2023-08-17T07:09:57;101928.60;;;27.91
69552;BMP280;63774;45.292;11.784;2023-08-17T07:12:23;101937.56;;;27.93
69552;BMP280;63774;45.292;11.784;2023-08-17T07:14:51;101942.77;;;27.95
69552;BMP280;63774;45.292;11.784;2023-08-17T07:17:17;101944.88;;;27.96
69552;BMP280;63774;45.292;11.784;2023-08-17T07:19:42;101947.91;;;27.98
69552;BMP280;63774;45.292;11.784;2023-08-17T07:22:08;101944.89;;;27.99
69552;BMP280;63774;45.292;11.784;2023-08-17T07:24:33;101943.18;;;28.01
69552;BMP280;63774;45.292;11.784;2023-08-17T07:26:58;101945.14;;;28.01
69552;BMP280;63774;45.292;11.784;2023-08-17T07:29:24;101945.48;;;28.03
69552;BMP280;63774;45.292;11.784;2023-08-17T07:31:49;101949.48;;;28.05
69552;BMP280;63774;45.292;11.784;2023-08-17T07:34:15;101948.93;;;28.06
69552;BMP280;63774;45.292;11.784;2023-08-17T07:36:40;101952.14;;;28.09
69552;BMP280;63774;45.292;11.784;2023-08-17T07:39:06;101952.65;;;28.10
69552;BMP280;63774;45.292;11.784;2023-08-17T07:41:32;101952.31;;;28.11
69552;BMP280;63774;45.292;11.784;2023-08-17T07:43:57;101956.61;;;28.12
69552;BMP280;63774;45.292;11.784;2023-08-17T07:46:23;101959.54;;;28.14
69552;BMP280;63774;45.292;11.784;2023-08-17T07:48:50;101963.02;;;28.16
69552;BMP280;63774;45.292;11.784;2023-08-17T07:51:15;101965.69;;;28.18
69552;BMP280;63774;45.292;11.784;2023-08-17T07:53:41;101967.84;;;28.18
69552;BMP280;63774;45.292;11.784;2023-08-17T07:56:06;101968.48;;;28.20
69552;BMP280;63774;45.292;11.784;2023-08-17T07:58:32;101970.88;;;28.21
69552;BMP280;63774;45.292;11.784;2023-08-17T08:00:57;101970.80;;;28.22
69552;BMP280;63774;45.292;11.784;2023-08-17T08:03:22;101974.16;;;28.23
69552;BMP280;63774;45.292;11.784;2023-08-17T08:05:48;101978.39;;;28.23
69552;BMP280;63774;45.292;11.784;2023-08-17T08:08:13;101976.13;;;28.25
69552;BMP280;63774;45.292;11.784;2023-08-17T08:10:40;101974.14;;;28.25
69552;BMP280;63774;45.292;11.784;2023-08-17T08:13:06;101974.48;;;28.27
69552;BMP280;63774;45.292;11.784;2023-08-17T08:15:33;101980.17;;;28.28
69552;BMP280;63774;45.292;11.784;2023-08-17T08:17:58;101980.16;;;28.30
69552;BMP280;63774;45.292;11.784;2023-08-17T08:20:23;101975.35;;;28.32
69552;BMP280;63774;45.292;11.784;2023-08-17T08:22:49;101970.30;;;28.31
69552;BMP280;63774;45.292;11.784;2023-08-17T08:25:14;101970.68;;;28.31
69552;BMP280;63774;45.292;11.784;2023-08-17T08:27:40;101969.77;;;28.33
69552;BMP280;63774;45.292;11.784;2023-08-17T08:30:06;101963.11;;;28.33
69552;BMP280;63774;45.292;11.784;2023-08-17T08:32:32;101959.56;;;28.34
69552;BMP280;63774;45.292;11.784;2023-08-17T08:34:57;101957.25;;;28.34
69552;BMP280;63774;45.292;11.784;2023-08-17T08:37:22;101958.42;;;28.35
69552;BMP280;63774;45.292;11.784;2023-08-17T08:39:52;101960.09;;;28.37
69552;BMP280;63774;45.292;11.784;2023-08-17T08:42:19;101960.82;;;28.38
69552;BMP280;63774;45.292;11.784;2023-08-17T08:44:45;101961.39;;;28.38
69552;BMP280;63774;45.292;11.784;2023-08-17T08:47:12;101960.34;;;28.38
69552;BMP280;63774;45.292;11.784;2023-08-17T08:49:57;101961.35;;;28.37
69552;BMP280;63774;45.292;11.784;2023-08-17T08:52:32;101962.35;;;28.39
69552;BMP280;63774;45.292;11.784;2023-08-17T08:54:58;101964.19;;;28.39
69552;BMP280;63774;45.292;11.784;2023-08-17T08:57:27;101962.81;;;28.39
69552;BMP280;63774;45.292;11.784;2023-08-17T08:59:53;101958.98;;;28.40
69552;BMP280;63774;45.292;11.784;2023-08-17T09:02:19;101957.88;;;28.41
69552;BMP280;63774;45.292;11.784;2023-08-17T09:04:45;101957.14;;;28.41
69552;BMP280;63774;45.292;11.784;2023-08-17T09:07:12;101957.96;;;28.42
69552;BMP280;63774;45.292;11.784;2023-08-17T09:09:38;101960.73;;;28.44
69552;BMP280;63774;45.292;11.784;2023-08-17T09:12:07;101957.01;;;28.44
69552;BMP280;63774;45.292;11.784;2023-08-17T09:14:34;101954.51;;;28.44
69552;BMP280;63774;45.292;11.784;2023-08-17T09:17:00;101957.19;;;28.44
69552;BMP280;63774;45.292;11.784;2023-08-17T09:19:25;101956.61;;;28.43
69552;BMP280;63774;45.292;11.784;2023-08-17T09:21:51;101953.58;;;28.44
69552;BMP280;63774;45.292;11.784;2023-08-17T09:24:16;101953.05;;;28.46
69552;BMP280;63774;45.292;11.784;2023-08-17T09:26:42;101951.75;;;28.46
69552;BMP280;63774;45.292;11.784;2023-08-17T09:29:18;101948.24;;;28.47
69552;BMP280;63774;45.292;11.784;2023-08-17T09:31:45;101947.90;;;28.47
69552;BMP280;63774;45.292;11.784;2023-08-17T09:34:11;101946.48;;;28.48
69552;BMP280;63774;45.292;11.784;2023-08-17T09:36:36;101942.25;;;28.48
69552;BMP280;63774;45.292;11.784;2023-08-17T09:39:02;101941.39;;;28.50
69552;BMP280;63774;45.292;11.784;2023-08-17T09:41:28;101935.66;;;28.49
69552;BMP280;63774;45.292;11.784;2023-08-17T09:43:54;101936.17;;;28.51
69552;BMP280;63774;45.292;11.784;2023-08-17T09:46:21;101937.48;;;28.55
69552;BMP280;63774;45.292;11.784;2023-08-17T09:48:47;101932.38;;;28.56
69552;BMP280;63774;45.292;11.784;2023-08-17T09:51:16;101927.34;;;28.57
69552;BMP280;63774;45.292;11.784;2023-08-17T09:53:43;101925.95;;;28.58
69552;BMP280;63774;45.292;11.784;2023-08-17T09:56:09;101927.41;;;28.60
69552;BMP280;63774;45.292;11.784;2023-08-17T09:58:37;101922.95;;;28.59
69552;BMP280;63774;45.292;11.784;2023-08-17T10:01:04;101919.84;;;28.60
69552;BMP280;63774;45.292;11.784;2023-08-17T10:03:33;101919.83;;;28.62
69552;BMP280;63774;45.292;11.784;2023-08-17T10:06:04;101919.73;;;28.64
69552;BMP280;63774;45.292;11.784;2023-08-17T10:08:33;101922.59;;;28.67
69552;BMP280;63774;45.292;11.784;2023-08-17T10:11:02;101922.05;;;28.66
69552;BMP280;63774;45.292;11.784;2023-08-17T10:13:37;101920.37;;;28.67
69552;BMP280;63774;45.292;11.784;2023-08-17T10:16:19;101919.41;;;28.67
69552;BMP280;63774;45.292;11.784;2023-08-17T10:18:55;101920.80;;;28.69
69552;BMP280;63774;45.292;11.784;2023-08-17T10:21:28;101917.29;;;28.69
69552;BMP280;63774;45.292;11.784;2023-08-17T10:23:55;101917.39;;;28.69
69552;BMP280;63774;45.292;11.784;2023-08-17T10:26:22;101913.11;;;28.69
69552;BMP280;63774;45.292;11.784;2023-08-17T10:28:48;101912.61;;;28.70
69552;BMP280;63774;45.292;11.784;2023-08-17T10:31:15;101913.02;;;28.71
69552;BMP280;63774;45.292;11.784;2023-08-17T10:33:41;101910.64;;;28.72
69552;BMP280;63774;45.292;11.784;2023-08-17T10:36:11;101906.16;;;28.71
69552;BMP280;63774;45.292;11.784;2023-08-17T10:38:37;101908.38;;;28.74
69552;BMP280;63774;45.292;11.784;2023-08-17T10:41:15;101905.80;;;28.75
69552;BMP280;63774;45.292;11.784;2023-08-17T10:43:57;101900.91;;;28.74
69552;BMP280;63774;45.292;11.784;2023-08-17T10:46:33;101894.21;;;28.75
69552;BMP280;63774;45.292;11.784;2023-08-17T10:49:07;101895.98;;;28.77
69552;BMP280;63774;45.292;11.784;2023-08-17T10:52:07;101894.79;;;28.78
69552;BMP280;63774;45.292;11.784;2023-08-17T10:54:37;101893.81;;;28.79
69552;BMP280;63774;45.292;11.784;2023-08-17T10:57:32;101889.92;;;28.79
69552;BMP280;63774;45.292;11.784;2023-08-17T11:02:33;101890.33;;;28.82
69552;BMP280;63774;45.292;11.784;2023-08-17T11:05:00;101888.80;;;28.83
69552;BMP280;63774;45.292;11.784;2023-08-17T11:07:27;101885.15;;;28.82
69552;BMP280;63774;45.292;11.784;2023-08-17T11:09:53;101879.48;;;28.83
69552;BMP280;63774;45.292;11.784;2023-08-17T11:12:26;101877.00;;;28.82
69552;BMP280;63774;45.292;11.784;2023-08-17T11:14:52;101873.94;;;28.83
69552;BMP280;63774;45.292;11.784;2023-08-17T11:17:20;101873.56;;;28.83
69552;BMP280;63774;45.292;11.784;2023-08-17T11:19:46;101870.30;;;28.82
69552;BMP280;63774;45.292;11.784;2023-08-17T11:22:12;101867.70;;;28.82
69552;BMP280;63774;45.292;11.784;2023-08-17T11:24:38;101865.71;;;28.83
69552;BMP280;63774;45.292;11.784;2023-08-17T11:27:05;101860.92;;;28.83
69552;BMP280;63774;45.292;11.784;2023-08-17T11:29:32;101856.71;;;28.84
69552;BMP280;63774;45.292;11.784;2023-08-17T11:31:58;101855.70;;;28.86
69552;BMP280;63774;45.292;11.784;2023-08-17T11:34:23;101850.56;;;28.87
69552;BMP280;63774;45.292;11.784;2023-08-17T11:36:49;101847.52;;;28.89
69552;BMP280;63774;45.292;11.784;2023-08-17T11:39:15;101845.22;;;28.90
69552;BMP280;63774;45.292;11.784;2023-08-17T11:41:40;101843.54;;;28.91
69552;BMP280;63774;45.292;11.784;2023-08-17T11:44:06;101842.45;;;28.88
69552;BMP280;63774;45.292;11.784;2023-08-17T11:46:32;101842.08;;;28.89
69552;BMP280;63774;45.292;11.784;2023-08-17T11:49:01;101842.34;;;28.90
69552;BMP280;63774;45.292;11.784;2023-08-17T11:51:30;101840.45;;;28.91
69552;BMP280;63774;45.292;11.784;2023-08-17T11:53:59;101833.67;;;28.91
69552;BMP280;63774;45.292;11.784;2023-08-17T11:56:25;101832.83;;;28.92
69552;BMP280;63774;45.292;11.784;2023-08-17T11:58:50;101832.91;;;28.93
69552;BMP280;63774;45.292;11.784;2023-08-17T12:01:15;101830.00;;;28.93
69552;BMP280;63774;45.292;11.784;2023-08-17T12:03:41;101831.70;;;28.94
69552;BMP280;63774;45.292;11.784;2023-08-17T12:06:07;101827.39;;;28.95
69552;BMP280;63774;45.292;11.784;2023-08-17T12:08:33;101826.26;;;28.97
69552;BMP280;63774;45.292;11.784;2023-08-17T12:10:59;101818.76;;;28.98
69552;BMP280;63774;45.292;11.784;2023-08-17T12:13:35;101819.11;;;28.99
69552;BMP280;63774;45.292;11.784;2023-08-17T12:16:00;101812.84;;;28.97
69552;BMP280;63774;45.292;11.784;2023-08-17T12:18:26;101808.60;;;28.98
69552;BMP280;63774;45.292;11.784;2023-08-17T12:20:53;101803.96;;;28.98
69552;BMP280;63774;45.292;11.784;2023-08-17T12:23:19;101802.83;;;28.98
69552;BMP280;63774;45.292;11.784;2023-08-17T12:25:44;101800.63;;;28.97
69552;BMP280;63774;45.292;11.784;2023-08-17T12:28:12;101799.21;;;28.97
69552;BMP280;63774;45.292;11.784;2023-08-17T12:30:38;101798.14;;;28.97
69552;BMP280;63774;45.292;11.784;2023-08-17T12:33:04;101797.61;;;28.98
69552;BMP280;63774;45.292;11.784;2023-08-17T12:35:31;101796.86;;;28.98
69552;BMP280;63774;45.292;11.784;2023-08-17T12:37:57;101794.29;;;29.00
69552;BMP280;63774;45.292;11.784;2023-08-17T12:40:23;101792.18;;;29.02
69552;BMP280;63774;45.292;11.784;2023-08-17T12:42:49;101793.16;;;29.04
69552;BMP280;63774;45.292;11.784;2023-08-17T12:45:15;101793.61;;;29.05
69552;BMP280;63774;45.292;11.784;2023-08-17T12:47:41;101788.49;;;29.07
69552;BMP280;63774;45.292;11.784;2023-08-17T12:50:07;101785.43;;;29.08
69552;BMP280;63774;45.292;11.784;2023-08-17T12:52:32;101783.19;;;29.10
69552;BMP280;63774;45.292;11.784;2023-08-17T12:54:58;101781.86;;;29.12
69552;BMP280;63774;45.292;11.784;2023-08-17T12:57:24;101781.02;;;29.14
69552;BMP280;63774;45.292;11.784;2023-08-17T12:59:49;101773.19;;;29.14
69552;BMP280;63774;45.292;11.784;2023-08-17T13:02:14;101775.83;;;29.16
69552;BMP280;63774;45.292;11.784;2023-08-17T13:04:41;101774.02;;;29.18
69552;BMP280;63774;45.292;11.784;2023-08-17T13:07:07;101776.02;;;29.18
69552;BMP280;63774;45.292;11.784;2023-08-17T13:09:32;101773.50;;;29.17
69552;BMP280;63774;45.292;11.784;2023-08-17T13:11:58;101769.61;;;29.19
69552;BMP280;63774;45.292;11.784;2023-08-17T13:14:25;101768.48;;;29.20
69552;BMP280;63774;45.292;11.784;2023-08-17T13:16:50;101765.55;;;29.20
69552;BMP280;63774;45.292;11.784;2023-08-17T13:19:16;101766.06;;;29.21
69552;BMP280;63774;45.292;11.784;2023-08-17T13:21:41;101759.64;;;29.22
69552;BMP280;63774;45.292;11.784;2023-08-17T13:24:07;101757.60;;;29.22
69552;BMP280;63774;45.292;11.784;2023-08-17T13:26:32;101760.02;;;29.22
69552;BMP280;63774;45.292;11.784;2023-08-17T13:28:58;101757.94;;;29.22
69552;BMP280;63774;45.292;11.784;2023-08-17T13:31:23;101754.32;;;29.24
69552;BMP280;63774;45.292;11.784;2023-08-17T13:33:48;101741.61;;;29.23
69552;BMP280;63774;45.292;11.784;2023-08-17T13:36:33;101739.40;;;29.25
69552;BMP280;63774;45.292;11.784;2023-08-17T13:38:58;101739.86;;;29.25
69552;BMP280;63774;45.292;11.784;2023-08-17T13:41:24;101743.98;;;29.25
69552;BMP280;63774;45.292;11.784;2023-08-17T13:43:50;101740.11;;;29.23
69552;BMP280;63774;45.292;11.784;2023-08-17T13:46:15;101737.31;;;29.25